Time;durP1;ratioP1;P1;durP2;ratioP2;P2;SDS_P1;SDS_P2;PMS_P1;PMS_P2;Temp;Humidity;BMP_temperature;BMP_pressure;BME280_temperature;BME280_humidity;BME280_pressure;Samples;Min_cycle;Max_cycle;Signal;HPM_P1;HPM_P2
2021/07/13 00:02:01;;;;;;;13.75;10.02;;;614.70;2432.00;;;;;;5040434;28;20025;-84
2021/07/13 00:04:27;;;;;;;13.75;10.43;;;614.80;2432.00;;;;;;5041708;28;20460;-84
2021/07/13 00:06:53;;;;;;;12.90;10.93;;;614.80;2432.00;;;;;;5041155;28;20021;-85
2021/07/13 00:09:20;;;;;;;14.55;10.25;;;614.70;2432.00;;;;;;5040324;28;20516;-84
2021/07/13 00:11:47;;;;;;;15.35;10.45;;;614.80;2432.00;;;;;;5040508;28;20021;-84
2021/07/13 00:14:14;;;;;;;12.35;10.88;;;614.70;2432.00;;;;;;5041092;28;20025;-83
2021/07/13 00:16:40;;;;;;;16.50;10.93;;;614.70;2432.00;;;;;;5042171;28;20028;-82
2021/07/13 00:19:05;;;;;;;16.67;10.35;;;614.40;2432.00;;;;;;5037626;28;20029;-83
2021/07/13 00:21:31;;;;;;;14.25;10.18;;;614.40;2432.00;;;;;;5039520;28;20094;-83
2021/07/13 00:23:57;;;;;;;15.25;11.30;;;589.70;2432.00;;;;;;5039840;28;20107;-83
2021/07/13 00:26:24;;;;;;;15.68;10.60;;;589.70;2432.00;;;;;;5039715;28;20029;-83
2021/07/13 00:28:50;;;;;;;12.43;10.38;;;589.60;2432.00;;;;;;5039361;28;20435;-83
2021/07/13 00:31:15;;;;;;;13.70;10.48;;;589.70;2432.00;;;;;;5039745;28;20063;-83
2021/07/13 00:33:41;;;;;;;13.70;9.88;;;589.50;2432.00;;;;;;5039610;28;20017;-84
2021/07/13 00:36:07;;;;;;;15.95;11.15;;;589.40;2432.00;;;;;;5039467;28;20356;-84
2021/07/13 00:38:34;;;;;;;15.25;11.63;;;589.30;2432.00;;;;;;5039758;28;20521;-84
2021/07/13 00:41:00;;;;;;;12.13;10.52;;;589.10;2432.00;;;;;;5039313;28;20021;-84
2021/07/13 00:43:25;;;;;;;12.40;11.10;;;589.70;2432.00;;;;;;5039392;28;20115;-86
2021/07/13 00:45:51;;;;;;;16.83;11.27;;;589.50;2432.00;;;;;;5039024;28;20135;-82
2021/07/13 00:48:21;;;;;;;15.82;11.32;;;589.50;2432.00;;;;;;5039128;28;20033;-85
2021/07/13 00:50:47;;;;;;;15.68;10.82;;;589.50;2432.00;;;;;;5039127;28;20032;-83
2021/07/13 00:53:13;;;;;;;18.42;11.25;;;589.40;2432.00;;;;;;5039379;28;20401;-83
2021/07/13 00:55:39;;;;;;;15.27;11.80;;;589.00;2432.00;;;;;;5039100;28;20116;-86
2021/07/13 00:58:05;;;;;;;15.70;11.63;;;589.40;2432.00;;;;;;5039195;28;20472;-82
2021/07/13 01:00:32;;;;;;;14.48;11.10;;;589.50;2432.00;;;;;;5039489;28;20052;-84
2021/07/13 01:03:01;;;;;;;14.70;11.32;;;589.50;2432.00;;;;;;5038938;28;20449;-85
2021/07/13 01:05:50;;;;;;;15.23;10.77;;;589.40;2432.00;;;;;;5039107;28;20017;-83
2021/07/13 01:08:42;;;;;;;16.08;12.23;;;589.40;2432.00;;;;;;5038139;28;20047;-85
2021/07/13 01:11:30;;;;;;;14.48;11.18;;;589.30;2432.00;;;;;;5056372;28;20021;-84
2021/07/13 01:14:05;;;;;;;15.15;12.00;;;589.40;2432.00;;;;;;5039020;28;20029;-84
2021/07/13 01:16:48;;;;;;;13.52;11.35;;;589.40;2432.00;;;;;;5038840;28;20036;-84
2021/07/13 01:19:35;;;;;;;17.08;11.93;;;589.30;2432.00;;;;;;5038887;28;20025;-85
2021/07/13 01:22:07;;;;;;;13.95;11.27;;;589.20;2432.00;;;;;;5038733;28;20475;-82
2021/07/13 01:24:50;;;;;;;16.00;11.90;;;589.20;2432.00;;;;;;5038505;28;20017;-84
2021/07/13 01:27:27;;;;;;;16.67;11.65;;;589.00;2432.00;;;;;;5038530;28;20037;-83
2021/07/13 01:29:56;;;;;;;14.85;12.05;;;588.90;2432.00;;;;;;5038485;28;20017;-83
2021/07/13 01:32:26;;;;;;;13.48;11.70;;;588.80;2432.00;;;;;;5056098;28;20025;-83
2021/07/13 01:35:00;;;;;;;13.00;11.57;;;564.10;2432.00;;;;;;5038458;28;20021;-85
2021/07/13 01:37:28;;;;;;;17.35;12.32;;;564.10;2432.00;;;;;;5038190;28;20025;-84
2021/07/13 01:39:55;;;;;;;19.58;12.30;;;564.10;2432.00;;;;;;5038440;28;20044;-83
2021/07/13 01:42:23;;;;;;;16.08;12.10;;;564.00;2432.00;;;;;;5038392;28;20025;-83
2021/07/13 01:44:52;;;;;;;15.38;11.52;;;563.90;2432.00;;;;;;5037945;28;20021;-83
2021/07/13 01:47:18;;;;;;;15.02;12.27;;;563.90;2432.00;;;;;;5038221;28;20040;-83
2021/07/13 01:49:46;;;;;;;17.95;12.23;;;563.70;2432.00;;;;;;5038176;28;20031;-82
2021/07/13 01:52:12;;;;;;;14.57;11.38;;;563.70;2432.00;;;;;;5037563;28;20021;-83
2021/07/13 01:54:40;;;;;;;17.08;12.50;;;563.60;2432.00;;;;;;5038077;28;20021;-88
2021/07/13 01:57:07;;;;;;;14.82;11.23;;;563.40;2432.00;;;;;;5038072;28;20025;-84
2021/07/13 01:59:34;;;;;;;13.80;11.63;;;563.60;2432.00;;;;;;5037924;28;20464;-85
2021/07/13 02:02:02;;;;;;;13.05;11.65;;;563.60;2432.00;;;;;;5038161;28;20017;-84
2021/07/13 02:04:30;;;;;;;17.65;12.43;;;563.60;2432.00;;;;;;5037878;28;20021;-82
2021/07/13 02:07:02;;;;;;;16.33;12.27;;;563.50;2432.00;;;;;;5037589;28;20031;-83
2021/07/13 02:09:28;;;;;;;18.25;12.07;;;563.60;2432.00;;;;;;5038079;28;20028;-82
2021/07/13 02:11:57;;;;;;;17.17;12.40;;;563.80;2432.00;;;;;;5037526;28;20116;-81
2021/07/13 02:14:23;;;;;;;16.88;12.23;;;563.90;2432.00;;;;;;5037495;28;20021;-82
2021/07/13 02:16:49;;;;;;;14.80;12.38;;;563.90;2432.00;;;;;;5055392;28;20044;-83
2021/07/13 02:19:16;;;;;;;15.90;12.50;;;564.00;2432.00;;;;;;5037485;28;20086;-83
2021/07/13 02:21:42;;;;;;;13.35;11.95;;;563.50;2432.00;;;;;;5036941;28;20021;-84
2021/07/13 02:24:08;;;;;;;17.58;12.77;;;564.00;2432.00;;;;;;5037104;28;20108;-81
2021/07/13 02:26:42;;;;;;;15.13;12.65;;;564.10;2432.00;;;;;;5037171;28;20049;-83
2021/07/13 02:29:14;;;;;;;15.25;11.90;;;564.00;2432.00;;;;;;5037620;28;20061;-82
2021/07/13 02:32:02;;;;;;;14.80;13.40;;;563.90;2432.00;;;;;;5037596;28;20526;-84
2021/07/13 02:34:30;;;;;;;14.35;12.13;;;563.40;2432.00;;;;;;5037069;28;20036;-82
2021/07/13 02:37:01;;;;;;;15.70;13.00;;;563.50;2432.00;;;;;;5037167;28;20044;-83
2021/07/13 02:39:30;;;;;;;17.77;12.83;;;563.70;2432.00;;;;;;5037552;28;20417;-82
2021/07/13 02:41:56;;;;;;;16.98;13.02;;;563.60;2432.00;;;;;;5036856;28;20439;-85
2021/07/13 02:44:26;;;;;;;17.42;13.30;;;563.80;2432.00;;;;;;5037012;28;20055;-81
2021/07/13 02:46:53;;;;;;;18.40;11.60;;;563.80;2432.00;;;;;;5036731;28;20133;-83
2021/07/13 02:49:26;;;;;;;18.55;13.50;;;563.80;2432.00;;;;;;5036859;28;20033;-83
2021/07/13 02:51:53;;;;;;;15.18;13.35;;;563.90;2432.00;;;;;;5037285;28;20419;-83
2021/07/13 02:54:26;;;;;;;13.48;12.00;;;563.90;2432.00;;;;;;5036738;28;20082;-84
2021/07/13 02:56:54;;;;;;;15.55;13.13;;;563.80;2432.00;;;;;;5036981;28;20028;-82
2021/07/13 02:59:25;;;;;;;14.57;12.35;;;563.90;2432.00;;;;;;5037130;28;20021;-86
2021/07/13 03:01:52;;;;;;;15.20;13.27;;;563.90;2432.00;;;;;;5036707;28;20021;-84
2021/07/13 03:04:19;;;;;;;16.95;12.65;;;563.80;2432.00;;;;;;5054640;28;20021;-84
2021/07/13 03:06:46;;;;;;;15.73;12.60;;;563.50;2432.00;;;;;;5036828;28;20017;-82
2021/07/13 03:09:13;;;;;;;14.52;12.60;;;563.60;2432.00;;;;;;5036551;28;20036;-83
2021/07/13 03:11:40;;;;;;;13.75;10.95;;;563.40;2432.00;;;;;;5036871;28;20031;-84
2021/07/13 03:14:09;;;;;;;14.50;13.02;;;563.60;2432.00;;;;;;5036464;28;20071;-84
2021/07/13 03:16:36;;;;;;;14.90;12.73;;;563.40;2432.00;;;;;;5036439;28;20021;-84
2021/07/13 03:19:04;;;;;;;16.63;13.40;;;563.50;2432.00;;;;;;5036842;28;20113;-85
2021/07/13 03:21:33;;;;;;;13.40;12.00;;;563.20;2432.00;;;;;;5036742;28;20021;-84
2021/07/13 03:24:04;;;;;;;14.30;12.55;;;563.30;2432.00;;;;;;5036660;28;20021;-84
2021/07/13 03:26:42;;;;;;;13.85;12.35;;;563.50;2432.00;;;;;;5036719;28;20420;-83
2021/07/13 03:29:11;;;;;;;15.82;11.77;;;563.60;2432.00;;;;;;5036223;28;20116;-83
2021/07/13 03:31:37;;;;;;;15.70;13.27;;;563.60;2432.00;;;;;;5037016;28;20087;-83
2021/07/13 03:34:05;;;;;;;14.90;12.32;;;538.30;2406.40;;;;;;5036599;28;20031;-83
2021/07/13 03:36:32;;;;;;;15.40;12.10;;;563.60;2432.00;;;;;;5036811;28;20024;-84
2021/07/13 03:38:58;;;;;;;19.67;13.50;;;563.60;2432.00;;;;;;5036726;28;20025;-82
2021/07/13 03:41:25;;;;;;;21.27;14.27;;;538.20;2406.40;;;;;;5037070;28;20025;-83
2021/07/13 03:43:51;;;;;;;16.95;12.90;;;563.20;2432.00;;;;;;5054792;28;20021;-86
2021/07/13 03:46:17;;;;;;;14.73;13.23;;;563.20;2432.00;;;;;;5036180;28;20051;-85
2021/07/13 03:48:46;;;;;;;16.05;13.25;;;538.50;2406.40;;;;;;5036283;28;20144;-82
2021/07/13 03:51:26;;;;;;;14.48;12.75;;;538.40;2406.40;;;;;;5036209;28;20021;-85
2021/07/13 03:53:52;;;;;;;14.27;12.57;;;538.50;2406.40;;;;;;5036326;28;20368;-83
2021/07/13 03:56:17;;;;;;;15.02;12.52;;;538.50;2406.40;;;;;;5036485;28;20021;-84
2021/07/13 03:58:43;;;;;;;17.83;12.63;;;563.20;2432.00;;;;;;5036386;28;20408;-85
2021/07/13 04:01:09;;;;;;;15.73;12.50;;;563.30;2432.00;;;;;;5036064;28;20060;-84
2021/07/13 04:03:35;;;;;;;14.20;12.25;;;563.40;2432.00;;;;;;5036161;28;20050;-82
2021/07/13 04:06:00;;;;;;;13.82;12.00;;;563.40;2432.00;;;;;;5036512;28;20021;-83
2021/07/13 04:08:26;;;;;;;14.48;12.27;;;563.20;2432.00;;;;;;5037887;28;20120;-84
2021/07/13 04:10:52;;;;;;;14.15;12.50;;;538.50;2406.40;;;;;;5037767;28;20025;-80
2021/07/13 04:13:18;;;;;;;17.05;14.02;;;538.40;2406.40;;;;;;5035937;28;20021;-83
2021/07/13 04:15:44;;;;;;;16.77;12.90;;;538.50;2406.40;;;;;;5036177;28;20021;-83
2021/07/13 04:18:10;;;;;;;17.73;14.52;;;538.30;2406.40;;;;;;5036063;28;20028;-85
2021/07/13 04:20:36;;;;;;;24.20;21.70;;;538.10;2406.40;;;;;;5035924;28;20048;-84
2021/07/13 04:23:02;;;;;;;24.42;21.75;;;538.10;2406.40;;;;;;5036099;28;20024;-84
2021/07/13 04:25:28;;;;;;;21.67;19.02;;;538.30;2406.40;;;;;;5035963;28;20391;-86
2021/07/13 04:27:54;;;;;;;26.23;16.67;;;538.50;2406.40;;;;;;5035896;28;20060;-83
2021/07/13 04:30:20;;;;;;;15.23;13.82;;;538.50;2406.40;;;;;;5053841;28;20021;-79
2021/07/13 04:32:45;;;;;;;16.15;14.23;;;563.20;2432.00;;;;;;5035746;28;20027;-85
2021/07/13 04:35:11;;;;;;;19.35;14.38;;;563.30;2432.00;;;;;;5035822;28;20116;-83
2021/07/13 04:37:37;;;;;;;16.30;14.65;;;538.50;2406.40;;;;;;5035676;28;20477;-82
2021/07/13 04:40:04;;;;;;;20.15;14.65;;;563.20;2432.00;;;;;;5035585;28;20021;-84
2021/07/13 04:42:30;;;;;;;19.50;13.80;;;563.30;2432.00;;;;;;5036000;28;20449;-84
2021/07/13 04:44:56;;;;;;;23.90;13.52;;;563.30;2432.00;;;;;;5035359;28;20076;-83
2021/07/13 04:47:22;;;;;;;17.80;13.98;;;563.40;2432.00;;;;;;5038986;28;20032;-83
2021/07/13 04:49:48;;;;;;;18.00;14.77;;;563.40;2432.00;;;;;;5039293;28;20021;-83
2021/07/13 04:52:14;;;;;;;18.88;13.18;;;563.50;2432.00;;;;;;5039041;28;20070;-83
2021/07/13 04:54:39;;;;;;;19.25;13.05;;;563.50;2432.00;;;;;;5056968;28;20021;-84
2021/07/13 04:57:05;;;;;;;20.20;13.50;;;563.40;2432.00;;;;;;5039051;28;20032;-84
2021/07/13 04:59:31;;;;;;;20.90;13.85;;;563.50;2432.00;;;;;;5039065;28;20021;-84
2021/07/13 05:01:57;;;;;;;20.02;14.15;;;563.40;2432.00;;;;;;5038656;28;20047;-83
2021/07/13 05:04:23;;;;;;;18.55;15.07;;;563.50;2432.00;;;;;;5038930;28;20098;-83
2021/07/13 05:06:48;;;;;;;16.00;13.93;;;563.50;2432.00;;;;;;5038831;28;20449;-86
2021/07/13 05:09:14;;;;;;;15.43;13.93;;;563.60;2432.00;;;;;;5038578;28;20029;-84
2021/07/13 05:11:40;;;;;;;18.20;13.68;;;563.60;2432.00;;;;;;5038859;28;20057;-85
2021/07/13 05:14:06;;;;;;;16.25;13.73;;;563.70;2432.00;;;;;;5038586;28;20024;-84
2021/07/13 05:16:32;;;;;;;22.50;20.02;;;563.70;2432.00;;;;;;5038742;28;20025;-82
2021/07/13 05:18:59;;;;;;;20.25;15.18;;;563.90;2432.00;;;;;;5038561;28;20025;-83
2021/07/13 05:21:25;;;;;;;16.75;14.18;;;564.10;2432.00;;;;;;5038730;28;20346;-82
2021/07/13 05:23:51;;;;;;;20.30;14.40;;;564.00;2432.00;;;;;;5038522;28;20074;-82
2021/07/13 05:26:17;;;;;;;15.70;14.13;;;564.10;2432.00;;;;;;5038847;28;20048;-83
2021/07/13 05:28:43;;;;;;;18.60;13.57;;;564.10;2432.00;;;;;;5038206;28;20025;-83
2021/07/13 05:31:09;;;;;;;18.30;14.82;;;564.10;2432.00;;;;;;5038630;28;20457;-84
2021/07/13 05:33:35;;;;;;;20.35;15.38;;;564.10;2432.00;;;;;;5056296;28;20052;-83
2021/07/13 05:36:00;;;;;;;18.70;14.52;;;588.80;2432.00;;;;;;5038133;28;20464;-82
2021/07/13 05:38:26;;;;;;;21.42;14.77;;;588.90;2432.00;;;;;;5038490;28;20025;-85
2021/07/13 05:40:52;;;;;;;19.92;14.48;;;589.00;2432.00;;;;;;5038233;28;20457;-84
2021/07/13 05:43:18;;;;;;;17.38;14.13;;;589.10;2432.00;;;;;;5038224;28;20021;-83
2021/07/13 05:45:47;;;;;;;20.30;14.10;;;589.20;2432.00;;;;;;5037948;28;20048;-86
2021/07/13 05:48:13;;;;;;;21.95;15.50;;;589.30;2432.00;;;;;;5038306;28;20028;-82
2021/07/13 05:50:39;;;;;;;20.77;14.75;;;589.50;2432.00;;;;;;5038045;28;20021;-83
2021/07/13 05:53:05;;;;;;;16.73;15.02;;;589.50;2432.00;;;;;;5038091;28;20032;-83
2021/07/13 05:55:30;;;;;;;19.45;14.77;;;589.50;2432.00;;;;;;5038070;28;20024;-85
2021/07/13 05:57:56;;;;;;;22.13;16.85;;;589.70;2432.00;;;;;;5036774;28;20025;-82
2021/07/13 06:00:22;;;;;;;19.90;15.43;;;589.70;2432.00;;;;;;5037684;28;20020;-84
2021/07/13 06:02:48;;;;;;;19.17;14.80;;;589.70;2432.00;;;;;;5037917;28;20028;-83
2021/07/13 06:05:15;;;;;;;18.75;14.80;;;589.70;2432.00;;;;;;5037844;28;20021;-83
2021/07/13 06:07:45;;;;;;;18.80;14.85;;;614.50;2432.00;;;;;;5038088;28;20029;-83
2021/07/13 06:10:11;;;;;;;16.30;14.07;;;614.60;2432.00;;;;;;5037677;28;20055;-83
2021/07/13 06:12:37;;;;;;;18.20;14.95;;;614.80;2432.00;;;;;;5037703;28;20025;-85
2021/07/13 06:15:05;;;;;;;20.67;15.75;;;614.90;2432.00;;;;;;5037702;28;20025;-82
2021/07/13 06:17:31;;;;;;;22.20;15.23;;;615.00;2432.00;;;;;;5037486;28;20043;-85
2021/07/13 06:19:57;;;;;;;23.98;15.43;;;615.20;2432.00;;;;;;5055324;28;20096;-84
2021/07/13 06:22:23;;;;;;;17.70;14.82;;;615.30;2432.00;;;;;;5037549;28;20111;-83
2021/07/13 06:24:49;;;;;;;15.40;13.80;;;615.30;2432.00;;;;;;5037244;28;20111;-84
2021/07/13 06:27:15;;;;;;;18.05;14.10;;;615.30;2432.00;;;;;;5037405;28;20021;-88
2021/07/13 06:29:41;;;;;;;20.02;13.38;;;640.00;2432.00;;;;;;5037344;28;20356;-82
2021/07/13 06:32:07;;;;;;;14.38;12.90;;;640.20;2432.00;;;;;;5037625;28;20021;-83
2021/07/13 06:34:33;;;;;;;18.70;12.85;;;640.30;2432.00;;;;;;5037409;28;20021;-84
2021/07/13 06:36:59;;;;;;;16.70;12.38;;;640.50;2432.00;;;;;;5037748;28;20025;-83
2021/07/13 06:39:25;;;;;;;13.82;12.25;;;640.70;2432.00;;;;;;5037065;28;20444;-84
2021/07/13 06:41:51;;;;;;;18.00;13.18;;;640.90;2432.00;;;;;;5037115;28;20056;-83
2021/07/13 06:44:16;;;;;;;17.02;12.43;;;665.70;2432.00;;;;;;5037042;28;20111;-83
2021/07/13 06:46:42;;;;;;;17.05;11.13;;;665.70;2432.00;;;;;;5036635;28;20041;-83
2021/07/13 06:49:08;;;;;;;11.95;10.70;;;665.90;2432.00;;;;;;5036981;28;20453;-86
2021/07/13 06:51:34;;;;;;;21.42;11.30;;;666.00;2432.00;;;;;;5037056;28;20376;-85
2021/07/13 06:54:00;;;;;;;16.15;12.38;;;666.20;2432.00;;;;;;5036989;28;20050;-82
2021/07/13 06:56:26;;;;;;;18.83;12.43;;;666.30;2432.00;;;;;;5037055;28;20090;-82
2021/07/13 06:58:51;;;;;;;53.38;14.52;;;666.50;2432.00;;;;;;5036951;28;20035;-84
2021/07/13 07:01:18;;;;;;;16.20;11.10;;;691.20;2432.00;;;;;;5054531;28;20027;-83
2021/07/13 07:03:43;;;;;;;13.27;10.88;;;691.40;2432.00;;;;;;5037124;28;20037;-85
2021/07/13 07:06:09;;;;;;;14.35;10.82;;;691.50;2432.00;;;;;;5036590;28;20581;-83
2021/07/13 07:08:35;;;;;;;14.45;11.25;;;691.60;2432.00;;;;;;5036426;28;20061;-82
2021/07/13 07:11:01;;;;;;;50.30;15.27;;;691.70;2432.00;;;;;;5036023;28;20032;-81
2021/07/13 07:13:26;;;;;;;27.95;13.90;;;691.90;2432.00;;;;;;5036301;28;20021;-79
2021/07/13 07:15:52;;;;;;;18.55;11.40;;;692.10;2432.00;;;;;;5036525;28;20025;-82
2021/07/13 07:18:18;;;;;;;24.10;11.32;;;692.10;2432.00;;;;;;5036444;28;20067;-84
2021/07/13 07:20:44;;;;;;;14.23;10.93;;;716.80;2432.00;;;;;;5036356;28;20017;-83
2021/07/13 07:23:09;;;;;;;36.90;12.73;;;692.10;2380.80;;;;;;5035008;28;20471;-84
2021/07/13 07:25:35;;;;;;;26.55;12.50;;;716.80;2406.40;;;;;;5023081;28;20060;-83
2021/07/13 07:28:02;;;;;;;16.65;10.40;;;717.10;2406.40;;;;;;5034049;28;20040;-84
2021/07/13 07:30:29;;;;;;;13.93;10.93;;;717.40;2355.20;;;;;;5021896;28;20043;-83
2021/07/13 07:32:56;;;;;;;14.50;10.88;;;717.10;2329.60;;;;;;5025422;28;20022;-85
2021/07/13 07:35:23;;;;;;;17.15;11.45;;;717.40;2355.20;;;;;;5028884;28;20021;-83
2021/07/13 07:37:49;;;;;;;21.17;13.13;;;717.50;2329.60;;;;;;5027128;28;20021;-82
2021/07/13 07:40:20;;;;;;;16.33;11.85;;;742.40;2355.20;;;;;;5025027;28;20021;-82
2021/07/13 07:42:48;;;;;;;18.07;11.93;;;742.60;2329.60;;;;;;5027355;28;20024;-81
2021/07/13 07:45:15;;;;;;;15.15;11.35;;;742.80;2304.00;;;;;;5044637;28;20033;-83
2021/07/13 07:47:41;;;;;;;16.85;10.82;;;742.80;2278.40;;;;;;5025447;28;20372;-82
2021/07/13 07:50:08;;;;;;;12.63;10.05;;;768.10;2278.40;;;;;;5024623;28;20425;-83
2021/07/13 07:52:34;;;;;;;16.38;11.02;;;768.20;2227.20;;;;;;5021864;28;20441;-82
2021/07/13 07:55:00;;;;;;;18.67;10.48;;;743.20;2227.20;;;;;;5025909;28;20013;-82
2021/07/13 07:57:25;;;;;;;12.10;10.82;;;743.30;2201.60;;;;;;5023589;28;20022;-84
2021/07/13 07:59:51;;;;;;;13.38;10.43;;;743.30;2201.60;;;;;;5025105;28;20021;-82
2021/07/13 08:02:17;;;;;;;19.23;10.68;;;768.10;2201.60;;;;;;5023864;28;20463;-83
2021/07/13 08:04:43;;;;;;;15.77;10.50;;;768.20;2150.40;;;;;;5023900;28;20220;-84
2021/07/13 08:07:09;;;;;;;15.30;10.95;;;768.40;2176.00;;;;;;5029058;28;20063;-85
2021/07/13 08:09:35;;;;;;;13.40;9.45;;;768.60;2150.40;;;;;;5012009;28;20017;-82
2021/07/13 08:12:01;;;;;;;15.52;9.95;;;768.40;2099.20;;;;;;5002587;28;20018;-84
2021/07/13 08:14:26;;;;;;;15.05;10.48;;;768.60;2099.20;;;;;;5016968;28;20017;-81
2021/07/13 08:16:53;;;;;;;14.52;9.57;;;768.90;2099.20;;;;;;5035734;28;20025;-81
2021/07/13 08:19:20;;;;;;;15.57;9.38;;;793.80;2073.60;;;;;;5035998;28;20025;-83
2021/07/13 08:21:46;;;;;;;57.53;51.75;;;768.90;2022.40;;;;;;5038809;28;20043;-83
2021/07/13 08:24:12;;;;;;;15.85;13.55;;;794.00;2048.00;;;;;;5031431;28;20445;-80
2021/07/13 08:26:38;;;;;;;18.80;12.32;;;794.20;2022.40;;;;;;5035618;28;20025;-80
2021/07/13 08:29:05;;;;;;;16.52;11.40;;;794.20;1996.80;;;;;;5039500;28;20029;-84
2021/07/13 08:31:31;;;;;;;17.35;10.30;;;794.20;1996.80;;;;;;5039189;28;20024;-82
2021/07/13 08:33:56;;;;;;;11.20;10.05;;;819.20;1996.80;;;;;;5057343;28;20013;-81
2021/07/13 08:36:22;;;;;;;15.82;11.05;;;819.20;1996.80;;;;;;5039411;28;20048;-82
2021/07/13 08:38:48;;;;;;;12.15;9.23;;;819.30;1971.20;;;;;;5039065;28;20075;-81
2021/07/13 08:41:14;;;;;;;17.00;10.90;;;;;;;;;;5039203;28;20021;-80
2021/07/13 08:43:42;;;;;;;27.95;13.40;;;819.60;1971.20;;;;;;5056992;28;20053;-79
2021/07/13 08:46:08;;;;;;;14.85;9.07;;;819.90;1945.60;;;;;;5038772;28;20044;-84
2021/07/13 08:48:41;;;;;;;10.57;8.35;;;819.60;1894.40;;;;;;5038982;28;20471;-82
2021/07/13 08:51:08;;;;;;;18.00;10.13;;;;;;;;;;5039162;28;20028;-83
2021/07/13 08:53:34;;;;;;;16.60;9.77;;;820.10;1868.80;;;;;;5039179;28;20021;-83
2021/07/13 08:56:00;;;;;;;14.80;9.88;;;844.90;1868.80;;;;;;5038910;28;20025;-84
2021/07/13 08:58:26;;;;;;;16.27;9.15;;;845.00;1868.80;;;;;;5038692;28;20078;-82
2021/07/13 09:00:53;;;;;;;12.18;7.97;;;845.20;1843.20;;;;;;5056744;28;20024;-82
2021/07/13 09:03:21;;;;;;;9.80;8.48;;;845.30;1817.60;;;;;;5038868;28;20025;-79
2021/07/13 09:05:54;;;;;;;18.23;10.73;;;845.40;1817.60;;;;;;5038437;28;20361;-81
2021/07/13 09:08:21;;;;;;;50.47;11.95;;;845.50;1817.60;;;;;;5038224;28;20071;-81
2021/07/13 09:11:01;;;;;;;13.55;8.48;;;845.70;1792.00;;;;;;5038345;28;20460;-81
2021/07/13 09:13:30;;;;;;;12.65;9.73;;;845.50;1766.40;;;;;;5038239;28;20028;-83
2021/07/13 09:15:57;;;;;;;19.08;9.90;;;845.60;1792.00;;;;;;5038470;28;20013;-82
2021/07/13 09:18:34;;;;;;;36.67;13.10;;;;;;;;;;5038646;28;20031;-81
2021/07/13 09:21:10;;;;;;;18.48;10.45;;;870.50;1792.00;;;;;;5038230;28;20428;-81
2021/07/13 09:23:56;;;;;;;11.10;8.38;;;870.70;1766.40;;;;;;5038310;28;20021;-83
2021/07/13 09:26:35;;;;;;;13.63;8.52;;;;;;;;;;5037713;28;20029;-80
2021/07/13 09:29:00;;;;;;;13.10;8.98;;;871.00;1715.20;;;;;;5055708;28;20472;-81
2021/07/13 09:31:26;;;;;;;9.88;8.13;;;871.10;1689.60;;;;;;5037974;28;20028;-81
2021/07/13 09:33:52;;;;;;;27.38;10.75;;;871.00;1689.60;;;;;;5055728;28;20021;-80
2021/07/13 09:36:19;;;;;;;14.48;9.70;;;871.10;1715.20;;;;;;5038164;28;20021;-81
2021/07/13 09:38:50;;;;;;;11.40;8.73;;;871.30;1689.60;;;;;;5038091;28;20373;-80
2021/07/13 09:41:18;;;;;;;12.17;8.43;;;896.10;1664.00;;;;;;5037821;28;20029;-81
2021/07/13 09:43:52;;;;;;;10.43;7.55;;;871.30;1638.40;;;;;;5055540;28;20577;-81
2021/07/13 09:46:21;;;;;;;11.15;8.00;;;871.30;1638.40;;;;;;5037834;28;20049;-81
2021/07/13 09:49:24;;;;;;;75.80;16.25;;;870.80;1689.60;;;;;;5037954;28;20028;-83
2021/07/13 09:51:55;;;;;;;19.83;10.95;;;870.80;1715.20;;;;;;5037723;28;20021;-84
2021/07/13 09:54:43;;;;;;;18.42;11.48;;;871.30;1689.60;;;;;;5038059;28;20067;-83
2021/07/13 09:57:14;;;;;;;15.23;10.90;;;896.10;1664.00;;;;;;5037932;28;20128;-84
2021/07/13 09:59:40;;;;;;;14.93;13.32;;;896.40;1638.40;;;;;;5054250;28;20448;-84
2021/07/13 10:02:08;;;;;;;14.75;11.18;;;896.40;1638.40;;;;;;5037594;28;20047;-82
2021/07/13 10:04:36;;;;;;;12.98;11.52;;;896.00;1638.40;;;;;;5037359;28;20025;-83
2021/07/13 10:07:10;;;;;;;15.25;11.73;;;896.40;1638.40;;;;;;5037782;28;20025;-84
2021/07/13 10:09:38;;;;;;;15.35;12.10;;;896.90;1664.00;;;;;;5037705;28;20457;-84
2021/07/13 10:12:09;;;;;;;14.70;10.65;;;921.90;1664.00;;;;;;5037435;28;20024;-82
2021/07/13 10:14:38;;;;;;;12.73;9.70;;;922.10;1638.40;;;;;;5037432;28;20024;-81
2021/07/13 10:17:07;;;;;;;15.95;10.05;;;922.30;1612.80;;;;;;5032741;28;20526;-83
2021/07/13 10:19:39;;;;;;;24.33;10.75;;;922.30;1587.20;;;;;;5034328;28;20047;-86
2021/07/13 10:22:06;;;;;;;12.35;8.02;;;921.90;1612.80;;;;;;5037903;28;20120;-86
2021/07/13 10:24:33;;;;;;;14.23;9.20;;;921.70;1587.20;;;;;;5037755;28;20032;-86
2021/07/13 10:26:59;;;;;;;14.88;11.75;;;921.70;1587.20;;;;;;5037619;28;20025;-86
2021/07/13 10:29:35;;;;;;;23.45;17.33;;;921.90;1612.80;;;;;;5055354;28;20359;-86
2021/07/13 10:32:26;;;;;;;14.13;10.00;;;922.40;1587.20;;;;;;5037559;28;20029;-84
2021/07/13 10:35:00;;;;;;;21.23;14.70;;;;;;;;;;5029223;28;20496;-85
2021/07/13 10:37:37;;;;;;;16.17;13.23;;;947.80;1510.40;;;;;;5034245;28;20175;-85
2021/07/13 10:40:26;;;;;;;11.25;10.07;;;922.50;1484.80;;;;;;5034908;28;20016;-85
2021/07/13 10:42:57;;;;;;;20.38;15.55;;;947.40;1459.20;;;;;;5029565;28;20381;-81
2021/07/13 10:45:39;;;;;;;14.85;12.10;;;947.60;1459.20;;;;;;5051877;28;20053;-81
2021/07/13 10:48:17;;;;;;;21.38;9.70;;;947.70;1433.60;;;;;;5023377;28;20119;-82
2021/07/13 10:50:54;;;;;;;13.88;8.32;;;947.20;1433.60;;;;;;5036593;28;20063;-85
2021/07/13 10:53:26;;;;;;;12.70;8.27;;;922.50;1433.60;;;;;;5036760;28;20029;-84
2021/07/13 10:55:57;;;;;;;13.88;9.23;;;947.90;1459.20;;;;;;5036849;28;20375;-83
2021/07/13 10:58:24;;;;;;;15.07;9.50;;;972.80;1433.60;;;;;;5036901;28;20452;-86
2021/07/13 11:00:50;;;;;;;14.07;8.07;;;973.10;1408.00;;;;;;5036358;28;20059;-82
2021/07/13 11:03:34;;;;;;;9.48;8.02;;;973.20;1356.80;;;;;;5036740;28;20056;-84
2021/07/13 11:06:03;;;;;;;13.23;7.90;;;973.40;1356.80;;;;;;5036779;28;20033;-84
2021/07/13 11:08:41;;;;;;;38.47;8.98;;;973.20;1356.80;;;;;;5053893;28;20061;-85
2021/07/13 11:11:18;;;;;;;15.20;7.70;;;973.50;1305.60;;;;;;5036648;28;20017;-85
2021/07/13 11:14:06;;;;;;;13.27;7.65;;;973.00;1305.60;;;;;;5036548;28;20116;-83
2021/07/13 11:16:37;;;;;;;24.88;8.45;;;973.00;1331.20;;;;;;5036337;28;20032;-84
2021/07/13 11:19:12;;;;;;;20.02;9.00;;;973.30;1356.80;;;;;;5036519;28;20024;-85
2021/07/13 11:21:41;;;;;;;14.02;8.05;;;;;;;;;;5036494;28;20056;-85
2021/07/13 11:24:06;;;;;;;12.10;8.38;;;998.60;1305.60;;;;;;5036528;28;20369;-84
2021/07/13 11:26:34;;;;;;;14.25;8.50;;;998.80;1305.60;;;;;;5036615;28;20024;-84
2021/07/13 11:29:08;;;;;;;11.32;7.53;;;999.00;1305.60;;;;;;5036411;28;20036;-84
2021/07/13 11:31:37;;;;;;;10.95;7.35;;;998.60;1305.60;;;;;;5036887;28;20021;-85
2021/07/13 11:34:03;;;;;;;16.15;8.13;;;998.50;1331.20;;;;;;5055123;28;20039;-84
2021/07/13 11:36:33;;;;;;;16.00;7.72;;;999.00;1280.00;;;;;;5036515;28;20111;-83
2021/07/13 11:39:02;;;;;;;11.73;7.35;;;999.10;1280.00;;;;;;5036315;28;20051;-85
2021/07/13 11:41:30;;;;;;;23.10;8.55;;;999.30;1280.00;;;;;;5036157;28;20100;-82
2021/07/13 11:43:58;;;;;;;13.88;8.07;;;1024.00;1280.00;;;;;;5035456;28;20385;-84
2021/07/13 11:46:26;;;;;;;19.65;9.23;;;1024.10;1254.40;;;;;;5036094;28;20056;-84
2021/07/13 11:49:01;;;;;;;22.00;9.63;;;1024.10;1254.40;;;;;;5036109;28;20040;-84
2021/07/13 11:51:31;;;;;;;18.50;7.95;;;1024.10;1280.00;;;;;;5035799;28;20028;-83
2021/07/13 11:54:03;;;;;;;39.33;10.65;;;1024.30;1280.00;;;;;;5036219;28;20108;-84
2021/07/13 11:56:31;;;;;;;18.05;8.90;;;1024.30;1254.40;;;;;;5038960;28;20028;-85
2021/07/13 11:58:57;;;;;;;23.67;8.63;;;1024.30;1280.00;;;;;;5040027;28;20025;-84
2021/07/13 12:01:26;;;;;;;24.73;8.80;;;1024.10;1254.40;;;;;;5039998;28;20017;-85
2021/07/13 12:03:53;;;;;;;12.90;8.50;;;1024.00;1280.00;;;;;;5039609;28;20536;-83
2021/07/13 12:06:23;;;;;;;14.15;8.77;;;998.90;1280.00;;;;;;5040162;28;20031;-83
2021/07/13 12:09:12;;;;;;;14.77;8.57;;;998.70;1280.00;;;;;;5039627;28;20028;-82
2021/07/13 12:11:46;;;;;;;16.88;9.57;;;999.10;1280.00;;;;;;5038985;28;20025;-84